sensor_id;sensor_type;location;lat;lon;timestamp;P1;durP1;ratioP1;P2;durP2;ratioP2
1178;SDS011;578;48.408;10.004;2022-08-21T00:01:14;10.30;;;9.40;;
1178;SDS011;578;48.408;10.004;2022-08-21T00:03:42;9.60;;;8.63;;
1178;SDS011;578;48.408;10.004;2022-08-21T00:06:11;8.80;;;7.90;;
1178;SDS011;578;48.408;10.004;2022-08-21T00:08:38;10.83;;;8.10;;
1178;SDS011;578;48.408;10.004;2022-08-21T00:11:05;10.50;;;8.60;;
1178;SDS011;578;48.408;10.004;2022-08-21T00:13:32;9.63;;;8.60;;
1178;SDS011;578;48.408;10.004;2022-08-21T00:15:59;8.73;;;7.83;;
1178;SDS011;578;48.408;10.004;2022-08-21T00:18:26;10.00;;;7.47;;
1178;SDS011;578;48.408;10.004;2022-08-21T00:20:53;9.10;;;8.33;;
1178;SDS011;578;48.408;10.004;2022-08-21T00:23:21;8.80;;;7.90;;
1178;SDS011;578;48.408;10.004;2022-08-21T00:25:48;10.10;;;9.10;;
1178;SDS011;578;48.408;10.004;2022-08-21T00:28:15;9.50;;;8.60;;
1178;SDS011;578;48.408;10.004;2022-08-21T00:30:43;9.77;;;8.83;;
1178;SDS011;578;48.408;10.004;2022-08-21T00:33:10;10.63;;;9.10;;
1178;SDS011;578;48.408;10.004;2022-08-21T00:35:39;11.43;;;10.30;;
1178;SDS011;578;48.408;10.004;2022-08-21T00:38:07;12.57;;;11.13;;
1178;SDS011;578;48.408;10.004;2022-08-21T00:40:39;12.00;;;10.63;;
1178;SDS011;578;48.408;10.004;2022-08-21T00:43:09;10.07;;;9.10;;
1178;SDS011;578;48.408;10.004;2022-08-21T00:45:37;11.77;;;9.87;;
1178;SDS011;578;48.408;10.004;2022-08-21T00:48:05;13.13;;;11.60;;
1178;SDS011;578;48.408;10.004;2022-08-21T00:50:33;12.57;;;10.40;;
1178;SDS011;578;48.408;10.004;2022-08-21T00:53:04;12.90;;;10.47;;
1178;SDS011;578;48.408;10.004;2022-08-21T00:55:33;14.93;;;11.40;;
1178;SDS011;578;48.408;10.004;2022-08-21T00:58:03;13.37;;;11.97;;
1178;SDS011;578;48.408;10.004;2022-08-21T01:00:35;15.00;;;11.27;;
1178;SDS011;578;48.408;10.004;2022-08-21T01:03:05;13.87;;;12.37;;
1178;SDS011;578;48.408;10.004;2022-08-21T01:05:34;14.77;;;12.03;;
1178;SDS011;578;48.408;10.004;2022-08-21T01:08:01;14.37;;;12.90;;
1178;SDS011;578;48.408;10.004;2022-08-21T01:10:29;14.00;;;11.10;;
1178;SDS011;578;48.408;10.004;2022-08-21T01:12:57;12.83;;;11.53;;
1178;SDS011;578;48.408;10.004;2022-08-21T01:15:27;12.00;;;10.60;;
1178;SDS011;578;48.408;10.004;2022-08-21T01:17:56;15.90;;;12.17;;
1178;SDS011;578;48.408;10.004;2022-08-21T01:20:23;14.53;;;11.97;;
1178;SDS011;578;48.408;10.004;2022-08-21T01:22:52;13.47;;;12.07;;
1178;SDS011;578;48.408;10.004;2022-08-21T01:25:19;15.80;;;10.97;;
1178;SDS011;578;48.408;10.004;2022-08-21T01:27:46;13.27;;;11.87;;
1178;SDS011;578;48.408;10.004;2022-08-21T01:30:14;11.77;;;10.57;;
1178;SDS011;578;48.408;10.004;2022-08-21T01:32:44;10.77;;;9.60;;
1178;SDS011;578;48.408;10.004;2022-08-21T01:35:11;11.17;;;9.97;;
1178;SDS011;578;48.408;10.004;2022-08-21T01:37:39;11.30;;;9.77;;
1178;SDS011;578;48.408;10.004;2022-08-21T01:40:09;13.27;;;10.97;;
1178;SDS011;578;48.408;10.004;2022-08-21T01:42:37;9.60;;;8.63;;
1178;SDS011;578;48.408;10.004;2022-08-21T01:45:04;11.43;;;9.93;;
1178;SDS011;578;48.408;10.004;2022-08-21T01:47:32;10.20;;;9.30;;
1178;SDS011;578;48.408;10.004;2022-08-21T01:49:59;10.73;;;9.70;;
1178;SDS011;578;48.408;10.004;2022-08-21T01:52:26;10.20;;;8.57;;
1178;SDS011;578;48.408;10.004;2022-08-21T01:54:54;12.10;;;8.90;;
1178;SDS011;578;48.408;10.004;2022-08-21T01:57:23;13.13;;;9.90;;
1178;SDS011;578;48.408;10.004;2022-08-21T01:59:50;15.63;;;11.40;;
1178;SDS011;578;48.408;10.004;2022-08-21T02:02:17;14.43;;;11.17;;
1178;SDS011;578;48.408;10.004;2022-08-21T02:04:43;13.57;;;10.70;;
1178;SDS011;578;48.408;10.004;2022-08-21T02:07:10;17.73;;;12.20;;
1178;SDS011;578;48.408;10.004;2022-08-21T02:09:37;14.70;;;11.70;;
1178;SDS011;578;48.408;10.004;2022-08-21T02:12:07;15.00;;;11.33;;
1178;SDS011;578;48.408;10.004;2022-08-21T02:14:35;12.10;;;10.73;;
1178;SDS011;578;48.408;10.004;2022-08-21T02:17:02;11.53;;;10.33;;
1178;SDS011;578;48.408;10.004;2022-08-21T02:19:29;10.80;;;9.70;;
1178;SDS011;578;48.408;10.004;2022-08-21T02:21:56;11.07;;;9.43;;
1178;SDS011;578;48.408;10.004;2022-08-21T02:24:22;10.50;;;9.20;;
1178;SDS011;578;48.408;10.004;2022-08-21T02:26:49;12.30;;;9.00;;
1178;SDS011;578;48.408;10.004;2022-08-21T02:29:16;10.97;;;7.80;;
1178;SDS011;578;48.408;10.004;2022-08-21T02:31:44;9.77;;;8.33;;
1178;SDS011;578;48.408;10.004;2022-08-21T02:34:10;8.80;;;7.53;;
1178;SDS011;578;48.408;10.004;2022-08-21T02:36:37;9.03;;;7.60;;
1178;SDS011;578;48.408;10.004;2022-08-21T02:39:04;9.20;;;6.13;;
1178;SDS011;578;48.408;10.004;2022-08-21T02:41:30;6.43;;;5.57;;
1178;SDS011;578;48.408;10.004;2022-08-21T02:43:57;10.50;;;6.80;;
1178;SDS011;578;48.408;10.004;2022-08-21T02:46:24;7.17;;;6.00;;
1178;SDS011;578;48.408;10.004;2022-08-21T02:48:52;7.60;;;5.93;;
1178;SDS011;578;48.408;10.004;2022-08-21T02:51:19;8.43;;;6.20;;
1178;SDS011;578;48.408;10.004;2022-08-21T02:53:47;6.83;;;6.20;;
1178;SDS011;578;48.408;10.004;2022-08-21T02:56:16;7.20;;;6.60;;
1178;SDS011;578;48.408;10.004;2022-08-21T02:58:45;8.67;;;6.20;;
1178;SDS011;578;48.408;10.004;2022-08-21T03:01:14;8.60;;;6.40;;
1178;SDS011;578;48.408;10.004;2022-08-21T03:03:42;8.00;;;6.23;;
1178;SDS011;578;48.408;10.004;2022-08-21T03:06:12;8.30;;;6.70;;
1178;SDS011;578;48.408;10.004;2022-08-21T03:08:40;8.37;;;7.53;;
1178;SDS011;578;48.408;10.004;2022-08-21T03:11:09;9.13;;;7.87;;
1178;SDS011;578;48.408;10.004;2022-08-21T03:13:36;10.90;;;7.27;;
1178;SDS011;578;48.408;10.004;2022-08-21T03:16:04;10.50;;;7.90;;
1178;SDS011;578;48.408;10.004;2022-08-21T03:18:31;9.77;;;8.77;;
1178;SDS011;578;48.408;10.004;2022-08-21T03:20:58;12.60;;;8.93;;
1178;SDS011;578;48.408;10.004;2022-08-21T03:23:26;11.50;;;9.03;;
1178;SDS011;578;48.408;10.004;2022-08-21T03:25:55;13.57;;;9.50;;
1178;SDS011;578;48.408;10.004;2022-08-21T03:28:23;11.27;;;8.93;;
1178;SDS011;578;48.408;10.004;2022-08-21T03:30:51;16.20;;;10.00;;
1178;SDS011;578;48.408;10.004;2022-08-21T03:33:19;11.03;;;9.90;;
1178;SDS011;578;48.408;10.004;2022-08-21T03:35:47;12.97;;;9.30;;
1178;SDS011;578;48.408;10.004;2022-08-21T03:38:24;14.43;;;10.03;;
1178;SDS011;578;48.408;10.004;2022-08-21T03:40:52;10.83;;;9.83;;
1178;SDS011;578;48.408;10.004;2022-08-21T03:43:19;12.10;;;10.90;;
1178;SDS011;578;48.408;10.004;2022-08-21T03:45:46;17.10;;;11.97;;
1178;SDS011;578;48.408;10.004;2022-08-21T03:48:13;13.50;;;11.37;;
1178;SDS011;578;48.408;10.004;2022-08-21T03:50:41;10.10;;;9.03;;
1178;SDS011;578;48.408;10.004;2022-08-21T03:53:10;17.07;;;9.83;;
1178;SDS011;578;48.408;10.004;2022-08-21T03:55:39;11.80;;;9.10;;
1178;SDS011;578;48.408;10.004;2022-08-21T03:58:06;12.90;;;9.90;;
1178;SDS011;578;48.408;10.004;2022-08-21T04:00:33;10.10;;;9.10;;
1178;SDS011;578;48.408;10.004;2022-08-21T04:03:00;12.70;;;8.60;;
1178;SDS011;578;48.408;10.004;2022-08-21T04:05:26;9.23;;;8.20;;
1178;SDS011;578;48.408;10.004;2022-08-21T04:07:54;12.60;;;9.00;;
1178;SDS011;578;48.408;10.004;2022-08-21T04:10:21;12.03;;;10.37;;
1178;SDS011;578;48.408;10.004;2022-08-21T04:12:51;14.27;;;10.37;;
1178;SDS011;578;48.408;10.004;2022-08-21T04:15:18;16.07;;;12.23;;
1178;SDS011;578;48.408;10.004;2022-08-21T04:17:45;21.20;;;13.80;;
1178;SDS011;578;48.408;10.004;2022-08-21T04:20:13;22.63;;;13.80;;
1178;SDS011;578;48.408;10.004;2022-08-21T04:22:40;17.57;;;11.60;;
1178;SDS011;578;48.408;10.004;2022-08-21T04:25:07;17.93;;;13.50;;
1178;SDS011;578;48.408;10.004;2022-08-21T04:27:34;15.90;;;13.10;;
1178;SDS011;578;48.408;10.004;2022-08-21T04:30:02;13.63;;;10.67;;
1178;SDS011;578;48.408;10.004;2022-08-21T04:32:30;16.90;;;11.60;;
1178;SDS011;578;48.408;10.004;2022-08-21T04:34:59;18.00;;;12.70;;
1178;SDS011;578;48.408;10.004;2022-08-21T04:37:29;17.13;;;13.13;;
1178;SDS011;578;48.408;10.004;2022-08-21T04:39:56;19.20;;;12.90;;
1178;SDS011;578;48.408;10.004;2022-08-21T04:42:23;13.00;;;10.20;;
1178;SDS011;578;48.408;10.004;2022-08-21T04:44:50;10.57;;;9.33;;
1178;SDS011;578;48.408;10.004;2022-08-21T04:47:18;11.03;;;9.83;;
1178;SDS011;578;48.408;10.004;2022-08-21T04:49:44;12.40;;;8.20;;
1178;SDS011;578;48.408;10.004;2022-08-21T04:52:12;11.77;;;9.30;;
1178;SDS011;578;48.408;10.004;2022-08-21T04:54:41;11.33;;;10.13;;
1178;SDS011;578;48.408;10.004;2022-08-21T04:57:10;10.40;;;8.73;;
1178;SDS011;578;48.408;10.004;2022-08-21T04:59:38;9.80;;;8.80;;
1178;SDS011;578;48.408;10.004;2022-08-21T05:02:07;10.00;;;8.53;;
1178;SDS011;578;48.408;10.004;2022-08-21T05:04:37;9.63;;;8.37;;
1178;SDS011;578;48.408;10.004;2022-08-21T05:07:10;11.00;;;8.47;;
1178;SDS011;578;48.408;10.004;2022-08-21T05:09:41;13.97;;;9.30;;
1178;SDS011;578;48.408;10.004;2022-08-21T05:12:08;9.73;;;8.73;;
1178;SDS011;578;48.408;10.004;2022-08-21T05:14:35;12.23;;;9.80;;
1178;SDS011;578;48.408;10.004;2022-08-21T05:17:02;10.93;;;8.93;;
1178;SDS011;578;48.408;10.004;2022-08-21T05:19:29;11.33;;;10.03;;
1178;SDS011;578;48.408;10.004;2022-08-21T05:21:57;12.93;;;10.20;;
1178;SDS011;578;48.408;10.004;2022-08-21T05:24:24;11.23;;;9.33;;
1178;SDS011;578;48.408;10.004;2022-08-21T05:26:51;14.20;;;10.27;;
1178;SDS011;578;48.408;10.004;2022-08-21T05:29:17;11.90;;;9.30;;
1178;SDS011;578;48.408;10.004;2022-08-21T05:31:45;13.10;;;10.70;;
1178;SDS011;578;48.408;10.004;2022-08-21T05:34:12;11.40;;;10.23;;
1178;SDS011;578;48.408;10.004;2022-08-21T05:36:40;12.00;;;9.70;;
1178;SDS011;578;48.408;10.004;2022-08-21T05:39:08;11.43;;;10.40;;
1178;SDS011;578;48.408;10.004;2022-08-21T05:41:35;14.70;;;10.40;;
1178;SDS011;578;48.408;10.004;2022-08-21T05:44:01;11.47;;;10.37;;
1178;SDS011;578;48.408;10.004;2022-08-21T05:46:28;11.80;;;9.63;;
1178;SDS011;578;48.408;10.004;2022-08-21T05:48:55;12.33;;;10.90;;
1178;SDS011;578;48.408;10.004;2022-08-21T05:51:22;14.93;;;11.67;;
1178;SDS011;578;48.408;10.004;2022-08-21T05:53:52;12.60;;;10.73;;
1178;SDS011;578;48.408;10.004;2022-08-21T05:56:20;10.93;;;10.03;;
1178;SDS011;578;48.408;10.004;2022-08-21T05:58:47;10.37;;;9.30;;
1178;SDS011;578;48.408;10.004;2022-08-21T06:01:13;9.87;;;8.00;;
1178;SDS011;578;48.408;10.004;2022-08-21T06:03:41;7.40;;;5.90;;
1178;SDS011;578;48.408;10.004;2022-08-21T06:06:08;5.83;;;5.20;;
1178;SDS011;578;48.408;10.004;2022-08-21T06:08:35;6.17;;;4.90;;
1178;SDS011;578;48.408;10.004;2022-08-21T06:11:02;4.37;;;3.97;;
1178;SDS011;578;48.408;10.004;2022-08-21T06:13:31;5.30;;;4.80;;
1178;SDS011;578;48.408;10.004;2022-08-21T06:16:02;5.20;;;4.70;;
1178;SDS011;578;48.408;10.004;2022-08-21T06:18:31;7.60;;;4.10;;
1178;SDS011;578;48.408;10.004;2022-08-21T06:20:57;5.60;;;4.30;;
1178;SDS011;578;48.408;10.004;2022-08-21T06:23:24;4.23;;;3.60;;
1178;SDS011;578;48.408;10.004;2022-08-21T06:25:51;6.07;;;3.77;;
1178;SDS011;578;48.408;10.004;2022-08-21T06:28:17;4.87;;;3.60;;
1178;SDS011;578;48.408;10.004;2022-08-21T06:30:46;4.67;;;4.27;;
1178;SDS011;578;48.408;10.004;2022-08-21T06:33:12;5.40;;;4.10;;
1178;SDS011;578;48.408;10.004;2022-08-21T06:35:39;3.73;;;3.43;;
1178;SDS011;578;48.408;10.004;2022-08-21T06:38:06;4.03;;;3.60;;
1178;SDS011;578;48.408;10.004;2022-08-21T06:40:33;4.90;;;3.50;;
1178;SDS011;578;48.408;10.004;2022-08-21T06:43:04;4.90;;;3.60;;
1178;SDS011;578;48.408;10.004;2022-08-21T06:45:32;4.57;;;4.10;;
1178;SDS011;578;48.408;10.004;2022-08-21T06:48:01;5.60;;;3.50;;
1178;SDS011;578;48.408;10.004;2022-08-21T06:50:28;4.20;;;3.50;;
1178;SDS011;578;48.408;10.004;2022-08-21T06:52:58;6.13;;;3.90;;
1178;SDS011;578;48.408;10.004;2022-08-21T06:55:25;4.30;;;3.90;;
1178;SDS011;578;48.408;10.004;2022-08-21T06:57:52;4.90;;;4.27;;
1178;SDS011;578;48.408;10.004;2022-08-21T07:00:19;5.60;;;4.80;;
1178;SDS011;578;48.408;10.004;2022-08-21T07:02:46;5.17;;;4.17;;
1178;SDS011;578;48.408;10.004;2022-08-21T07:05:14;4.83;;;4.33;;
1178;SDS011;578;48.408;10.004;2022-08-21T07:07:41;4.00;;;3.53;;
1178;SDS011;578;48.408;10.004;2022-08-21T07:10:08;4.70;;;4.30;;
1178;SDS011;578;48.408;10.004;2022-08-21T07:12:35;5.30;;;4.87;;
1178;SDS011;578;48.408;10.004;2022-08-21T07:15:02;5.93;;;5.43;;
1178;SDS011;578;48.408;10.004;2022-08-21T07:17:29;5.80;;;5.30;;
1178;SDS011;578;48.408;10.004;2022-08-21T07:19:56;7.30;;;6.40;;
1178;SDS011;578;48.408;10.004;2022-08-21T07:22:24;8.67;;;5.50;;
1178;SDS011;578;48.408;10.004;2022-08-21T07:24:52;7.40;;;6.07;;
1178;SDS011;578;48.408;10.004;2022-08-21T07:27:19;7.10;;;5.90;;
1178;SDS011;578;48.408;10.004;2022-08-21T07:29:45;6.53;;;5.67;;
1178;SDS011;578;48.408;10.004;2022-08-21T07:32:12;6.27;;;5.67;;
1178;SDS011;578;48.408;10.004;2022-08-21T07:34:40;6.53;;;5.90;;
1178;SDS011;578;48.408;10.004;2022-08-21T07:37:07;6.93;;;6.33;;
1178;SDS011;578;48.408;10.004;2022-08-21T07:39:35;7.10;;;6.50;;
1178;SDS011;578;48.408;10.004;2022-08-21T07:42:02;7.57;;;6.87;;
1178;SDS011;578;48.408;10.004;2022-08-21T07:44:29;6.53;;;5.93;;
1178;SDS011;578;48.408;10.004;2022-08-21T07:46:56;6.70;;;5.60;;
1178;SDS011;578;48.408;10.004;2022-08-21T07:49:23;7.10;;;6.40;;
1178;SDS011;578;48.408;10.004;2022-08-21T07:51:49;6.80;;;6.10;;
1178;SDS011;578;48.408;10.004;2022-08-21T07:54:16;7.53;;;6.30;;
1178;SDS011;578;48.408;10.004;2022-08-21T07:56:44;6.10;;;5.50;;
1178;SDS011;578;48.408;10.004;2022-08-21T07:59:11;7.97;;;7.20;;
1178;SDS011;578;48.408;10.004;2022-08-21T08:01:38;7.13;;;5.23;;
1178;SDS011;578;48.408;10.004;2022-08-21T08:04:05;6.90;;;6.27;;
1178;SDS011;578;48.408;10.004;2022-08-21T08:06:32;6.13;;;5.47;;
1178;SDS011;578;48.408;10.004;2022-08-21T08:08:59;9.47;;;5.77;;
1178;SDS011;578;48.408;10.004;2022-08-21T08:11:28;6.17;;;5.57;;
1178;SDS011;578;48.408;10.004;2022-08-21T08:13:56;6.70;;;6.10;;
1178;SDS011;578;48.408;10.004;2022-08-21T08:16:24;6.17;;;5.67;;
1178;SDS011;578;48.408;10.004;2022-08-21T08:18:51;6.53;;;5.83;;
1178;SDS011;578;48.408;10.004;2022-08-21T08:21:20;5.30;;;4.80;;
1178;SDS011;578;48.408;10.004;2022-08-21T08:23:47;7.43;;;5.40;;
1178;SDS011;578;48.408;10.004;2022-08-21T08:26:14;6.03;;;5.43;;
1178;SDS011;578;48.408;10.004;2022-08-21T08:28:41;6.47;;;5.47;;
1178;SDS011;578;48.408;10.004;2022-08-21T08:31:10;5.97;;;4.47;;
1178;SDS011;578;48.408;10.004;2022-08-21T08:33:36;5.30;;;4.80;;
1178;SDS011;578;48.408;10.004;2022-08-21T08:36:03;4.90;;;4.00;;
1178;SDS011;578;48.408;10.004;2022-08-21T08:38:30;5.27;;;4.77;;
1178;SDS011;578;48.408;10.004;2022-08-21T08:41:00;8.53;;;5.20;;
1178;SDS011;578;48.408;10.004;2022-08-21T08:43:32;6.23;;;5.10;;
1178;SDS011;578;48.408;10.004;2022-08-21T08:46:01;5.40;;;4.90;;
1178;SDS011;578;48.408;10.004;2022-08-21T08:48:34;6.10;;;5.53;;
1178;SDS011;578;48.408;10.004;2022-08-21T08:51:08;5.43;;;4.43;;
1178;SDS011;578;48.408;10.004;2022-08-21T08:53:42;5.17;;;4.67;;
1178;SDS011;578;48.408;10.004;2022-08-21T08:56:15;5.60;;;4.90;;
1178;SDS011;578;48.408;10.004;2022-08-21T08:58:48;5.13;;;4.63;;
1178;SDS011;578;48.408;10.004;2022-08-21T09:01:18;8.20;;;4.60;;
1178;SDS011;578;48.408;10.004;2022-08-21T09:03:47;6.60;;;4.70;;
1178;SDS011;578;48.408;10.004;2022-08-21T09:06:19;5.80;;;4.73;;
1178;SDS011;578;48.408;10.004;2022-08-21T09:09:04;5.93;;;4.60;;
1178;SDS011;578;48.408;10.004;2022-08-21T09:11:43;6.10;;;4.20;;
1178;SDS011;578;48.408;10.004;2022-08-21T09:14:20;5.07;;;4.20;;
1178;SDS011;578;48.408;10.004;2022-08-21T09:17:01;5.13;;;4.00;;
1178;SDS011;578;48.408;10.004;2022-08-21T09:19:39;5.20;;;3.77;;
1178;SDS011;578;48.408;10.004;2022-08-21T09:22:19;8.70;;;3.30;;
1178;SDS011;578;48.408;10.004;2022-08-21T09:24:59;5.80;;;3.87;;
1178;SDS011;578;48.408;10.004;2022-08-21T09:27:35;5.13;;;3.63;;
1178;SDS011;578;48.408;10.004;2022-08-21T09:30:02;5.60;;;3.53;;
1178;SDS011;578;48.408;10.004;2022-08-21T09:32:31;6.90;;;3.57;;
1178;SDS011;578;48.408;10.004;2022-08-21T09:35:04;5.47;;;2.93;;
1178;SDS011;578;48.408;10.004;2022-08-21T09:37:33;7.27;;;3.60;;
1178;SDS011;578;48.408;10.004;2022-08-21T09:40:01;5.40;;;3.73;;
1178;SDS011;578;48.408;10.004;2022-08-21T09:42:41;5.30;;;3.30;;
1178;SDS011;578;48.408;10.004;2022-08-21T09:45:19;8.20;;;4.30;;
1178;SDS011;578;48.408;10.004;2022-08-21T09:47:46;3.93;;;3.20;;
1178;SDS011;578;48.408;10.004;2022-08-21T09:50:15;4.70;;;3.63;;
1178;SDS011;578;48.408;10.004;2022-08-21T09:52:45;6.50;;;3.47;;
1178;SDS011;578;48.408;10.004;2022-08-21T09:55:16;5.50;;;3.80;;
1178;SDS011;578;48.408;10.004;2022-08-21T09:57:58;3.97;;;3.30;;
1178;SDS011;578;48.408;10.004;2022-08-21T10:00:27;4.63;;;3.20;;
1178;SDS011;578;48.408;10.004;2022-08-21T10:03:07;5.97;;;3.40;;
1178;SDS011;578;48.408;10.004;2022-08-21T10:05:36;4.63;;;3.83;;
1178;SDS011;578;48.408;10.004;2022-08-21T10:08:04;7.20;;;3.80;;
1178;SDS011;578;48.408;10.004;2022-08-21T10:10:41;8.10;;;3.67;;
1178;SDS011;578;48.408;10.004;2022-08-21T10:13:09;4.30;;;3.90;;
1178;SDS011;578;48.408;10.004;2022-08-21T10:15:41;5.20;;;3.70;;
1178;SDS011;578;48.408;10.004;2022-08-21T10:18:19;4.50;;;3.03;;
1178;SDS011;578;48.408;10.004;2022-08-21T10:20:52;3.33;;;2.90;;
1178;SDS011;578;48.408;10.004;2022-08-21T10:23:29;5.03;;;3.27;;
1178;SDS011;578;48.408;10.004;2022-08-21T10:26:24;5.10;;;4.37;;
1178;SDS011;578;48.408;10.004;2022-08-21T10:28:57;9.60;;;3.80;;
1178;SDS011;578;48.408;10.004;2022-08-21T10:31:35;9.93;;;4.03;;
1178;SDS011;578;48.408;10.004;2022-08-21T10:34:12;4.90;;;3.60;;
1178;SDS011;578;48.408;10.004;2022-08-21T10:36:52;6.60;;;3.80;;
1178;SDS011;578;48.408;10.004;2022-08-21T10:39:29;6.80;;;3.93;;
1178;SDS011;578;48.408;10.004;2022-08-21T10:42:11;5.23;;;3.77;;
1178;SDS011;578;48.408;10.004;2022-08-21T10:44:48;4.67;;;3.37;;
1178;SDS011;578;48.408;10.004;2022-08-21T10:47:28;5.17;;;4.17;;
1178;SDS011;578;48.408;10.004;2022-08-21T10:50:01;5.47;;;3.83;;
1178;SDS011;578;48.408;10.004;2022-08-21T10:52:44;5.53;;;3.30;;
1178;SDS011;578;48.408;10.004;2022-08-21T10:55:18;6.37;;;3.60;;
1178;SDS011;578;48.408;10.004;2022-08-21T10:57:47;4.50;;;3.37;;
1178;SDS011;578;48.408;10.004;2022-08-21T11:00:17;5.33;;;3.30;;
1178;SDS011;578;48.408;10.004;2022-08-21T11:02:47;6.20;;;3.40;;
1178;SDS011;578;48.408;10.004;2022-08-21T11:05:21;4.90;;;3.70;;
1178;SDS011;578;48.408;10.004;2022-08-21T11:07:57;4.67;;;3.50;;
1178;SDS011;578;48.408;10.004;2022-08-21T11:10:30;5.70;;;3.30;;
1178;SDS011;578;48.408;10.004;2022-08-21T11:13:04;5.77;;;3.50;;
1178;SDS011;578;48.408;10.004;2022-08-21T11:15:36;4.43;;;3.20;;
1178;SDS011;578;48.408;10.004;2022-08-21T11:18:14;4.10;;;3.70;;
1178;SDS011;578;48.408;10.004;2022-08-21T11:20:49;4.20;;;3.43;;
1178;SDS011;578;48.408;10.004;2022-08-21T11:23:25;4.87;;;3.40;;
1178;SDS011;578;48.408;10.004;2022-08-21T11:25:57;4.93;;;3.20;;
1178;SDS011;578;48.408;10.004;2022-08-21T11:28:28;3.40;;;3.00;;
1178;SDS011;578;48.408;10.004;2022-08-21T11:30:58;3.50;;;3.20;;
1178;SDS011;578;48.408;10.004;2022-08-21T11:33:36;4.13;;;3.50;;
1178;SDS011;578;48.408;10.004;2022-08-21T11:36:15;5.67;;;3.43;;
1178;SDS011;578;48.408;10.004;2022-08-21T11:38:55;4.40;;;3.50;;
1178;SDS011;578;48.408;10.004;2022-08-21T11:41:29;4.23;;;3.80;;
1178;SDS011;578;48.408;10.004;2022-08-21T11:44:02;5.63;;;3.53;;
1178;SDS011;578;48.408;10.004;2022-08-21T11:46:44;4.00;;;3.23;;
1178;SDS011;578;48.408;10.004;2022-08-21T11:49:19;5.80;;;3.70;;
1178;SDS011;578;48.408;10.004;2022-08-21T11:51:55;5.07;;;3.13;;
1178;SDS011;578;48.408;10.004;2022-08-21T11:54:38;6.77;;;4.03;;
1178;SDS011;578;48.408;10.004;2022-08-21T11:57:13;4.53;;;3.27;;
1178;SDS011;578;48.408;10.004;2022-08-21T11:59:44;4.63;;;3.33;;
1178;SDS011;578;48.408;10.004;2022-08-21T12:02:17;5.90;;;3.80;;
1178;SDS011;578;48.408;10.004;2022-08-21T12:04:47;5.30;;;3.40;;
1178;SDS011;578;48.408;10.004;2022-08-21T12:07:28;3.97;;;3.03;;
1178;SDS011;578;48.408;10.004;2022-08-21T12:09:59;4.30;;;2.90;;
1178;SDS011;578;48.408;10.004;2022-08-21T12:12:28;5.40;;;3.63;;
1178;SDS011;578;48.408;10.004;2022-08-21T12:15:13;7.33;;;3.50;;
1178;SDS011;578;48.408;10.004;2022-08-21T12:17:52;4.63;;;3.30;;
1178;SDS011;578;48.408;10.004;2022-08-21T12:23:24;7.40;;;3.50;;
1178;SDS011;578;48.408;10.004;2022-08-21T12:26:01;5.33;;;4.17;;
1178;SDS011;578;48.408;10.004;2022-08-21T12:28:43;6.20;;;3.90;;
1178;SDS011;578;48.408;10.004;2022-08-21T12:31:17;5.70;;;3.80;;
1178;SDS011;578;48.408;10.004;2022-08-21T12:33:49;3.87;;;3.47;;
1178;SDS011;578;48.408;10.004;2022-08-21T12:36:20;5.20;;;3.40;;
1178;SDS011;578;48.408;10.004;2022-08-21T12:38:51;4.23;;;3.00;;
1178;SDS011;578;48.408;10.004;2022-08-21T12:41:24;4.77;;;3.30;;
1178;SDS011;578;48.408;10.004;2022-08-21T12:43:56;4.03;;;3.17;;
1178;SDS011;578;48.408;10.004;2022-08-21T12:46:27;3.93;;;3.40;;
1178;SDS011;578;48.408;10.004;2022-08-21T12:48:59;4.10;;;3.70;;
1178;SDS011;578;48.408;10.004;2022-08-21T12:51:31;7.13;;;3.77;;
1178;SDS011;578;48.408;10.004;2022-08-21T12:54:00;4.80;;;3.77;;
1178;SDS011;578;48.408;10.004;2022-08-21T12:56:31;6.57;;;4.03;;
1178;SDS011;578;48.408;10.004;2022-08-21T12:59:02;8.30;;;3.90;;
1178;SDS011;578;48.408;10.004;2022-08-21T13:01:31;7.33;;;3.20;;
1178;SDS011;578;48.408;10.004;2022-08-21T13:04:01;6.10;;;3.70;;
1178;SDS011;578;48.408;10.004;2022-08-21T13:06:31;5.63;;;3.80;;
1178;SDS011;578;48.408;10.004;2022-08-21T13:09:04;5.50;;;3.83;;
1178;SDS011;578;48.408;10.004;2022-08-21T13:11:34;6.43;;;3.77;;
1178;SDS011;578;48.408;10.004;2022-08-21T13:14:02;4.23;;;3.73;;
1178;SDS011;578;48.408;10.004;2022-08-21T13:16:30;4.20;;;3.70;;
1178;SDS011;578;48.408;10.004;2022-08-21T13:18:58;5.13;;;3.63;;
1178;SDS011;578;48.408;10.004;2022-08-21T13:21:28;5.30;;;3.33;;
1178;SDS011;578;48.408;10.004;2022-08-21T13:24:07;4.17;;;3.43;;
1178;SDS011;578;48.408;10.004;2022-08-21T13:26:40;5.20;;;3.60;;
1178;SDS011;578;48.408;10.004;2022-08-21T13:29:08;5.07;;;3.57;;
1178;SDS011;578;48.408;10.004;2022-08-21T13:31:36;5.90;;;3.67;;
1178;SDS011;578;48.408;10.004;2022-08-21T13:34:05;6.00;;;3.67;;
1178;SDS011;578;48.408;10.004;2022-08-21T13:36:34;6.77;;;3.40;;
1178;SDS011;578;48.408;10.004;2022-08-21T13:39:03;4.40;;;3.63;;
1178;SDS011;578;48.408;10.004;2022-08-21T13:41:32;6.13;;;3.37;;
1178;SDS011;578;48.408;10.004;2022-08-21T13:44:04;6.90;;;3.97;;
1178;SDS011;578;48.408;10.004;2022-08-21T13:46:39;4.00;;;3.50;;
1178;SDS011;578;48.408;10.004;2022-08-21T13:49:06;5.00;;;3.43;;
1178;SDS011;578;48.408;10.004;2022-08-21T13:51:35;3.83;;;3.13;;
1178;SDS011;578;48.408;10.004;2022-08-21T13:54:12;7.00;;;3.80;;
1178;SDS011;578;48.408;10.004;2022-08-21T13:56:42;5.10;;;3.20;;
1178;SDS011;578;48.408;10.004;2022-08-21T13:59:22;5.13;;;3.37;;
1178;SDS011;578;48.408;10.004;2022-08-21T14:01:51;4.73;;;3.10;;
1178;SDS011;578;48.408;10.004;2022-08-21T14:04:24;4.20;;;3.03;;
1178;SDS011;578;48.408;10.004;2022-08-21T14:06:53;4.07;;;3.13;;
1178;SDS011;578;48.408;10.004;2022-08-21T14:09:22;4.30;;;3.60;;
1178;SDS011;578;48.408;10.004;2022-08-21T14:11:54;4.23;;;3.00;;
1178;SDS011;578;48.408;10.004;2022-08-21T14:14:25;4.20;;;3.17;;
1178;SDS011;578;48.408;10.004;2022-08-21T14:16:55;7.33;;;3.30;;
1178;SDS011;578;48.408;10.004;2022-08-21T14:19:24;6.97;;;3.10;;
1178;SDS011;578;48.408;10.004;2022-08-21T14:21:52;4.60;;;3.87;;
1178;SDS011;578;48.408;10.004;2022-08-21T14:24:27;4.97;;;3.17;;
1178;SDS011;578;48.408;10.004;2022-08-21T14:26:56;6.30;;;3.80;;
1178;SDS011;578;48.408;10.004;2022-08-21T14:29:32;4.60;;;3.60;;
1178;SDS011;578;48.408;10.004;2022-08-21T14:32:08;4.30;;;3.83;;
1178;SDS011;578;48.408;10.004;2022-08-21T14:34:36;6.00;;;3.40;;
1178;SDS011;578;48.408;10.004;2022-08-21T14:37:03;8.23;;;3.50;;
1178;SDS011;578;48.408;10.004;2022-08-21T14:39:30;4.70;;;3.50;;
1178;SDS011;578;48.408;10.004;2022-08-21T14:41:56;4.60;;;3.40;;
1178;SDS011;578;48.408;10.004;2022-08-21T14:44:25;5.50;;;3.97;;
1178;SDS011;578;48.408;10.004;2022-08-21T14:46:54;3.30;;;3.00;;
1178;SDS011;578;48.408;10.004;2022-08-21T14:49:21;3.80;;;3.03;;
1178;SDS011;578;48.408;10.004;2022-08-21T14:51:51;4.33;;;3.10;;
1178;SDS011;578;48.408;10.004;2022-08-21T14:54:21;4.87;;;3.13;;
1178;SDS011;578;48.408;10.004;2022-08-21T14:56:48;4.33;;;3.20;;
1178;SDS011;578;48.408;10.004;2022-08-21T14:59:15;5.73;;;3.20;;
1178;SDS011;578;48.408;10.004;2022-08-21T15:01:42;6.60;;;3.50;;
1178;SDS011;578;48.408;10.004;2022-08-21T15:04:10;3.57;;;3.10;;
1178;SDS011;578;48.408;10.004;2022-08-21T15:06:37;5.13;;;3.20;;
1178;SDS011;578;48.408;10.004;2022-08-21T15:09:04;3.37;;;3.03;;
1178;SDS011;578;48.408;10.004;2022-08-21T15:11:31;3.67;;;2.70;;
1178;SDS011;578;48.408;10.004;2022-08-21T15:14:00;8.87;;;3.00;;
1178;SDS011;578;48.408;10.004;2022-08-21T15:16:29;4.57;;;3.03;;
1178;SDS011;578;48.408;10.004;2022-08-21T15:18:56;4.13;;;2.83;;
1178;SDS011;578;48.408;10.004;2022-08-21T15:21:24;4.47;;;2.83;;
1178;SDS011;578;48.408;10.004;2022-08-21T15:23:51;3.67;;;2.87;;
1178;SDS011;578;48.408;10.004;2022-08-21T15:26:18;4.10;;;3.27;;